Terminal Aerodrome Forecast
Issued by NWS

Home | Current Version | Previous Version | Text Only | Print | Product List | Glossary On
Versions: 1 2 3 4 5 6 7 8 9 10 11 12 13
302
FTUS44 KMAF 232320
TAFFST
TAF
KFST 232320Z 2400/2424 14026G36KT P6SM SCT045 SCT250
     FM240200 15020G30KT P6SM SCT040 OVC200
     FM241300 14013G23KT P6SM FEW035
      TEMPO 2414/2418 VRB25G35KT 1SM +TSRA BKN030CB
      AMD NOT SKED=

USA.gov is the U.S. government's official web portal to all federal, state and local government web resources and services.